createdAt,value
2022-08-26T00:00:07.054Z,53.19
2022-08-26T00:02:33.787Z,53.33
2022-08-26T00:05:00.445Z,53.41
2022-08-26T00:07:27.545Z,53.70
2022-08-26T00:09:56.043Z,54.97
2022-08-26T00:12:31.478Z,55.50
2022-08-26T00:15:02.917Z,56.17
2022-08-26T00:17:30.636Z,57.65
2022-08-26T00:19:57.678Z,57.78
2022-08-26T00:22:24.409Z,58.88
2022-08-26T00:24:51.160Z,59.81
2022-08-26T00:27:17.968Z,60.59
2022-08-26T00:29:44.704Z,60.71
2022-08-26T00:32:12.689Z,62.13
2022-08-26T00:34:41.080Z,62.35
2022-08-26T00:37:09.862Z,63.09
2022-08-26T00:39:39.216Z,63.75
2022-08-26T00:42:06.086Z,64.50
2022-08-26T00:44:32.781Z,65.17
2022-08-26T00:47:01.684Z,65.86
2022-08-26T00:49:43.304Z,66.05
2022-08-26T00:52:13.177Z,66.59
2022-08-26T00:54:45.365Z,67.32
2022-08-26T00:57:16.222Z,67.46
2022-08-26T00:59:46.602Z,67.67
2022-08-26T01:02:20.808Z,67.92
2022-08-26T01:04:55.521Z,68.50
2022-08-26T01:07:23.505Z,68.65
2022-08-26T01:09:50.149Z,69.17
2022-08-26T01:12:17.176Z,68.79
2022-08-26T01:14:49.473Z,69.40
2022-08-26T01:17:16.123Z,70.35
2022-08-26T01:19:49.497Z,70.62
2022-08-26T01:22:46.079Z,70.80
2022-08-26T01:25:13.863Z,71.45
2022-08-26T01:27:40.525Z,71.84
2022-08-26T01:30:07.932Z,72.32
2022-08-26T01:32:36.351Z,72.50
2022-08-26T01:35:07.175Z,72.78
2022-08-26T01:37:36.386Z,73.06
2022-08-26T01:40:06.809Z,73.27
2022-08-26T01:42:34.645Z,73.63
2022-08-26T01:45:08.971Z,73.74
2022-08-26T01:47:36.639Z,74.68
2022-08-26T01:50:09.168Z,75.50
2022-08-26T01:52:40.277Z,75.75
2022-08-26T01:55:07.524Z,76.92
2022-08-26T01:57:35.013Z,77.23
2022-08-26T02:00:04.652Z,77.56
2022-08-26T02:02:31.504Z,77.56
2022-08-26T02:05:05.681Z,78.14
2022-08-26T02:07:33.475Z,78.48
2022-08-26T02:10:00.518Z,78.95
2022-08-26T02:12:27.499Z,79.51
2022-08-26T02:14:56.334Z,80.25
2022-08-26T02:17:35.981Z,80.43
2022-08-26T02:20:06.608Z,80.67
2022-08-26T02:22:41.617Z,80.95
2022-08-26T02:25:26.076Z,81.59
2022-08-26T02:27:53.037Z,81.87
2022-08-26T02:30:24.219Z,82.03
2022-08-26T02:32:53.311Z,82.46
2022-08-26T02:35:22.085Z,83.05
2022-08-26T02:37:50.436Z,83.77
2022-08-26T02:40:21.586Z,83.73
2022-08-26T02:42:49.095Z,84.48
2022-08-26T02:45:16.739Z,83.73
2022-08-26T02:47:50.801Z,84.27
2022-08-26T02:50:17.543Z,84.49
2022-08-26T02:52:44.379Z,84.62
2022-08-26T02:55:11.257Z,85.19
2022-08-26T02:57:37.906Z,85.19
2022-08-26T03:00:06.478Z,85.54
2022-08-26T03:02:33.149Z,86.01
2022-08-26T03:05:01.686Z,86.48
2022-08-26T03:07:29.245Z,86.39
2022-08-26T03:10:14.922Z,86.23
2022-08-26T03:12:41.658Z,86.28
2022-08-26T03:15:16.591Z,86.74
2022-08-26T03:17:46.758Z,85.92
2022-08-26T03:20:15.559Z,86.33
2022-08-26T03:22:44.016Z,86.04
2022-08-26T03:25:12.871Z,86.22
2022-08-26T03:27:41.726Z,85.92
2022-08-26T03:30:29.419Z,86.06
2022-08-26T03:32:56.070Z,86.71
2022-08-26T03:35:23.233Z,86.18
2022-08-26T03:37:50.003Z,86.34
2022-08-26T03:40:16.696Z,86.25
2022-08-26T03:42:47.722Z,85.67
2022-08-26T03:45:16.221Z,86.02
2022-08-26T03:47:42.945Z,86.08
2022-08-26T03:50:12.347Z,85.71
2022-08-26T03:52:43.515Z,85.59
2022-08-26T03:55:11.153Z,85.45
2022-08-26T03:57:37.829Z,85.31
2022-08-26T04:00:08.005Z,85.59
2022-08-26T04:02:34.879Z,85.58
2022-08-26T04:05:02.722Z,85.05
2022-08-26T04:07:32.033Z,85.04
2022-08-26T04:09:59.813Z,85.15
2022-08-26T04:12:27.288Z,84.63
2022-08-26T04:14:54.045Z,84.65
2022-08-26T04:17:25.919Z,84.01
2022-08-26T04:19:53.963Z,83.63
2022-08-26T04:22:24.789Z,83.45
2022-08-26T04:24:52.182Z,83.67
2022-08-26T04:27:18.848Z,83.93
2022-08-26T04:29:47.721Z,84.40
2022-08-26T04:32:15.610Z,83.97
2022-08-26T04:34:43.711Z,83.94
2022-08-26T04:37:12.103Z,83.59
2022-08-26T04:39:38.987Z,83.98
2022-08-26T04:42:06.122Z,84.12
2022-08-26T04:44:35.386Z,84.19
2022-08-26T04:47:02.188Z,84.45
2022-08-26T04:49:35.100Z,84.24
2022-08-26T04:52:03.010Z,84.53
2022-08-26T04:54:29.713Z,84.36
2022-08-26T04:56:56.508Z,83.87
2022-08-26T04:59:23.143Z,84.43
2022-08-26T05:01:52.526Z,84.14
2022-08-26T05:04:20.633Z,84.43
2022-08-26T05:06:48.407Z,84.10
2022-08-26T05:09:16.105Z,84.16
2022-08-26T05:11:42.953Z,84.30
2022-08-26T05:14:09.808Z,84.65
2022-08-26T05:16:36.671Z,84.38
2022-08-26T05:19:04.410Z,84.55
2022-08-26T05:21:31.430Z,84.60
2022-08-26T05:23:58.587Z,84.32
2022-08-26T05:26:27.594Z,84.57
2022-08-26T05:28:55.279Z,84.28
2022-08-26T05:31:31.385Z,84.30
2022-08-26T05:33:59.074Z,83.87
2022-08-26T05:36:29.480Z,83.42
2022-08-26T05:38:57.894Z,83.55
2022-08-26T05:41:34.238Z,83.08
2022-08-26T05:44:06.009Z,83.38
2022-08-26T05:46:34.424Z,83.25
2022-08-26T05:49:01.465Z,83.05
2022-08-26T05:51:30.384Z,83.16
2022-08-26T05:53:57.388Z,83.29
2022-08-26T05:56:26.283Z,83.31
2022-08-26T05:58:55.934Z,83.23
2022-08-26T06:01:26.140Z,83.25
2022-08-26T06:03:56.345Z,83.58
2022-08-26T06:06:29.847Z,84.19
2022-08-26T06:08:59.433Z,84.14
2022-08-26T06:11:27.323Z,84.35
2022-08-26T06:14:00.021Z,83.73
2022-08-26T06:16:28.885Z,84.27
2022-08-26T06:18:55.946Z,83.64
2022-08-26T06:21:26.717Z,83.81
2022-08-26T06:24:14.894Z,83.72
2022-08-26T06:26:43.272Z,84.07
2022-08-26T06:29:24.071Z,83.08
2022-08-26T06:31:52.729Z,83.49
2022-08-26T06:34:19.932Z,83.55
2022-08-26T06:36:47.503Z,82.91
2022-08-26T06:39:15.851Z,83.22
2022-08-26T06:41:45.050Z,83.03
2022-08-26T06:44:14.615Z,83.02
2022-08-26T06:46:42.137Z,83.28
2022-08-26T06:49:12.558Z,82.86
2022-08-26T06:51:40.872Z,82.46
2022-08-26T06:54:08.438Z,82.21
2022-08-26T06:56:40.775Z,82.13
2022-08-26T06:59:08.325Z,81.98
2022-08-26T07:01:38.791Z,81.85
2022-08-26T07:04:10.491Z,81.72
2022-08-26T07:06:40.062Z,82.07
2022-08-26T07:09:09.999Z,81.82
2022-08-26T07:11:38.530Z,81.49
2022-08-26T07:14:06.261Z,81.62
2022-08-26T07:16:33.875Z,81.72
2022-08-26T07:19:11.094Z,81.53
2022-08-26T07:21:40.501Z,81.77
2022-08-26T07:24:08.468Z,81.38
2022-08-26T07:26:38.264Z,81.99
2022-08-26T07:29:05.083Z,81.96
2022-08-26T07:31:39.613Z,82.19
2022-08-26T07:34:10.999Z,82.11
2022-08-26T07:36:38.115Z,82.04
2022-08-26T07:39:05.825Z,81.78
2022-08-26T07:41:33.364Z,82.18
2022-08-26T07:44:00.766Z,81.60
2022-08-26T07:46:30.457Z,81.51
2022-08-26T07:48:57.433Z,81.66
2022-08-26T07:51:25.079Z,81.42
2022-08-26T07:53:53.202Z,81.60
2022-08-26T07:56:21.427Z,81.96
2022-08-26T07:58:51.609Z,81.93
2022-08-26T08:01:20.009Z,81.76
2022-08-26T08:03:46.705Z,81.20
2022-08-26T08:06:21.150Z,81.79
2022-08-26T08:08:50.849Z,81.31
2022-08-26T08:11:21.681Z,81.20
2022-08-26T08:13:48.988Z,80.73
2022-08-26T08:16:15.770Z,80.56
2022-08-26T08:18:42.532Z,80.36
2022-08-26T08:21:22.021Z,80.77
2022-08-26T08:23:52.848Z,80.35
2022-08-26T08:26:20.409Z,80.39
2022-08-26T08:28:48.164Z,79.92
2022-08-26T08:34:10.463Z,79.88
2022-08-26T08:36:37.049Z,80.09
2022-08-26T08:39:04.197Z,80.25
2022-08-26T08:41:51.372Z,80.22
2022-08-26T08:44:30.287Z,80.08
2022-08-26T08:47:03.036Z,80.13
2022-08-26T08:49:30.700Z,80.25
2022-08-26T08:52:37.018Z,80.27
2022-08-26T08:55:10.969Z,80.62
2022-08-26T08:58:06.166Z,79.99
2022-08-26T09:00:50.835Z,79.56
2022-08-26T09:03:40.544Z,79.99
2022-08-26T09:06:17.283Z,79.67
2022-08-26T09:08:45.970Z,79.13
2022-08-26T09:11:18.866Z,79.29
2022-08-26T09:13:51.142Z,79.01
2022-08-26T09:16:23.907Z,79.00
2022-08-26T09:19:11.315Z,79.13
2022-08-26T09:21:38.254Z,78.92
2022-08-26T09:24:06.377Z,79.03
2022-08-26T09:26:39.053Z,78.68
2022-08-26T09:29:11.463Z,79.10
2022-08-26T09:31:41.678Z,79.09
2022-08-26T09:34:24.841Z,79.26
2022-08-26T09:36:57.647Z,78.76
2022-08-26T09:39:37.639Z,78.47
2022-08-26T09:42:04.738Z,78.32
2022-08-26T09:44:31.896Z,78.19
2022-08-26T09:47:04.085Z,77.85
2022-08-26T09:49:35.974Z,78.23
2022-08-26T09:52:14.354Z,77.46
2022-08-26T09:54:43.179Z,78.03
2022-08-26T09:57:20.513Z,77.80
2022-08-26T09:59:49.515Z,77.41
2022-08-26T10:02:36.382Z,77.86
2022-08-26T10:05:09.765Z,77.42
2022-08-26T10:07:49.658Z,77.85
2022-08-26T10:10:30.610Z,77.39
2022-08-26T10:13:16.378Z,77.56
2022-08-26T10:15:52.945Z,77.30
2022-08-26T10:18:45.657Z,77.01
2022-08-26T10:21:19.681Z,77.12
2022-08-26T10:23:51.589Z,76.91
2022-08-26T10:26:21.445Z,76.88
2022-08-26T10:29:01.573Z,76.91
2022-08-26T10:31:40.483Z,77.11
2022-08-26T10:34:09.337Z,76.74
2022-08-26T10:37:15.757Z,76.68
2022-08-26T10:40:03.213Z,77.01
2022-08-26T10:42:35.390Z,76.47
2022-08-26T10:45:31.557Z,75.86
2022-08-26T10:48:08.701Z,76.53
2022-08-26T10:50:41.791Z,76.40
2022-08-26T10:53:17.567Z,75.59
2022-08-26T10:56:06.279Z,75.58
2022-08-26T10:59:17.139Z,75.15
2022-08-26T11:02:16.052Z,74.76
2022-08-26T11:04:48.535Z,75.35
2022-08-26T11:07:31.705Z,75.18
2022-08-26T11:10:18.828Z,74.55
2022-08-26T11:12:49.100Z,74.50
2022-08-26T11:15:24.793Z,74.14
2022-08-26T11:17:51.593Z,74.42
2022-08-26T11:20:30.224Z,74.54
2022-08-26T11:23:22.574Z,74.17
2022-08-26T11:25:59.085Z,74.17
2022-08-26T11:28:50.804Z,74.50
2022-08-26T11:31:18.979Z,74.07
2022-08-26T11:34:08.857Z,74.03
2022-08-26T11:36:43.646Z,73.82
2022-08-26T11:39:36.520Z,73.91
2022-08-26T11:42:20.121Z,74.11
2022-08-26T11:44:49.961Z,74.04
2022-08-26T11:47:27.397Z,73.38
2022-08-26T11:50:17.678Z,73.34
2022-08-26T11:53:02.440Z,72.88
2022-08-26T11:55:31.970Z,72.44
2022-08-26T11:58:01.285Z,72.11
2022-08-26T12:00:33.320Z,71.87
2022-08-26T12:03:02.969Z,71.58
2022-08-26T12:05:35.142Z,71.02
2022-08-26T12:08:09.701Z,70.89
2022-08-26T12:10:36.728Z,70.54
2022-08-26T12:15:34.137Z,69.68
2022-08-26T12:18:29.518Z,69.62
2022-08-26T12:21:34.932Z,69.29
2022-08-26T12:24:04.165Z,69.61
2022-08-26T12:26:34.084Z,70.04
2022-08-26T12:29:12.723Z,69.86
2022-08-26T12:31:46.996Z,69.40
2022-08-26T12:34:18.601Z,69.14
2022-08-26T12:39:29.866Z,69.26
2022-08-26T12:42:01.891Z,69.29
2022-08-26T12:44:32.041Z,68.92
2022-08-26T12:47:08.363Z,68.83
2022-08-26T12:49:37.851Z,69.21
2022-08-26T12:52:06.488Z,69.81
2022-08-26T12:54:56.735Z,69.72
2022-08-26T12:57:32.508Z,69.55
2022-08-26T13:00:28.501Z,69.43
2022-08-26T13:02:55.593Z,68.73
2022-08-26T13:05:25.723Z,68.67
2022-08-26T13:08:12.443Z,68.41
2022-08-26T13:10:45.742Z,68.34
2022-08-26T13:13:13.383Z,68.82
2022-08-26T13:15:40.256Z,68.80
2022-08-26T13:18:07.076Z,68.49
2022-08-26T13:20:33.957Z,68.57
2022-08-26T13:23:00.801Z,68.51
2022-08-26T13:25:27.911Z,68.28
2022-08-26T13:27:55.481Z,68.60
2022-08-26T13:30:22.303Z,68.97
2022-08-26T13:32:50.716Z,69.05
2022-08-26T13:35:17.770Z,68.82
2022-08-26T13:37:44.517Z,68.50
2022-08-26T13:40:14.454Z,68.92
2022-08-26T13:42:49.537Z,68.80
2022-08-26T13:45:18.238Z,68.94
2022-08-26T13:47:45.023Z,69.37
2022-08-26T13:50:11.795Z,68.93
2022-08-26T13:52:38.660Z,69.00
2022-08-26T13:55:06.827Z,69.36
2022-08-26T13:57:33.648Z,69.42
2022-08-26T14:00:00.958Z,69.22
2022-08-26T14:02:28.245Z,69.54
2022-08-26T14:04:56.135Z,69.33
2022-08-26T14:07:23.174Z,69.76
2022-08-26T14:09:50.022Z,69.84
2022-08-26T14:12:16.849Z,69.31
2022-08-26T14:14:43.794Z,69.57
2022-08-26T14:17:19.358Z,69.60
2022-08-26T14:19:47.352Z,69.48
2022-08-26T14:22:15.800Z,70.20
2022-08-26T14:24:43.882Z,70.04
2022-08-26T14:27:12.355Z,70.99
2022-08-26T14:29:39.563Z,71.23
2022-08-26T14:32:23.047Z,71.27
2022-08-26T14:34:53.629Z,71.69
2022-08-26T14:37:20.586Z,72.27
2022-08-26T14:39:50.250Z,72.75
2022-08-26T14:42:21.084Z,72.52
2022-08-26T14:44:50.889Z,72.16
2022-08-26T14:47:18.251Z,72.83
2022-08-26T14:49:45.889Z,72.82
2022-08-26T14:52:12.652Z,72.36
2022-08-26T14:54:39.333Z,72.95
2022-08-26T14:57:15.138Z,72.79
2022-08-26T14:59:49.665Z,73.54
2022-08-26T15:02:32.859Z,73.13
2022-08-26T15:05:03.915Z,72.92
2022-08-26T15:07:30.872Z,72.38
2022-08-26T15:09:57.618Z,73.02
2022-08-26T15:12:24.452Z,72.58
2022-08-26T15:14:51.502Z,72.59
2022-08-26T15:17:18.282Z,72.56
2022-08-26T15:19:45.097Z,72.26
2022-08-26T15:22:11.832Z,72.57
2022-08-26T15:24:38.540Z,72.56
2022-08-26T15:27:05.298Z,72.23
2022-08-26T15:29:32.036Z,72.20
2022-08-26T15:32:04.581Z,72.24
2022-08-26T15:34:32.127Z,72.75
2022-08-26T15:37:00.777Z,72.90
2022-08-26T15:39:27.919Z,72.57
2022-08-26T15:41:56.318Z,72.64
2022-08-26T15:44:23.456Z,72.89
2022-08-26T15:46:53.292Z,72.27
2022-08-26T15:49:25.008Z,72.22
2022-08-26T15:51:51.946Z,72.81
2022-08-26T15:54:21.941Z,72.30
2022-08-26T15:56:51.802Z,72.39
2022-08-26T15:59:20.560Z,72.59
2022-08-26T16:01:48.416Z,72.25
2022-08-26T16:04:15.247Z,72.05
2022-08-26T16:06:43.620Z,71.90
2022-08-26T16:09:11.148Z,71.59
2022-08-26T16:11:38.185Z,71.88
2022-08-26T16:14:05.937Z,71.51
2022-08-26T16:16:33.151Z,71.44
2022-08-26T16:19:08.640Z,71.46
2022-08-26T16:21:35.973Z,71.99
2022-08-26T16:24:05.897Z,72.27
2022-08-26T16:26:39.723Z,72.09
2022-08-26T16:29:16.726Z,72.43
2022-08-26T16:31:48.984Z,72.50
2022-08-26T16:34:15.733Z,72.94
2022-08-26T16:36:42.459Z,73.07
2022-08-26T16:39:09.637Z,73.30
2022-08-26T16:41:36.807Z,73.32
2022-08-26T16:44:04.443Z,73.60
2022-08-26T16:46:31.654Z,73.45
2022-08-26T16:48:59.490Z,72.69
2022-08-26T16:51:27.722Z,72.78
2022-08-26T16:53:55.979Z,73.29
2022-08-26T16:56:27.675Z,73.09
2022-08-26T16:59:01.805Z,73.04
2022-08-26T17:01:28.690Z,72.94
2022-08-26T17:03:55.487Z,73.27
2022-08-26T17:06:22.277Z,72.63
2022-08-26T17:08:49.385Z,73.28
2022-08-26T17:11:19.799Z,73.01
2022-08-26T17:13:46.738Z,73.14
2022-08-26T17:16:14.273Z,73.30
2022-08-26T17:18:41.235Z,73.21
2022-08-26T17:21:10.817Z,73.12
2022-08-26T17:23:38.416Z,73.54
2022-08-26T17:26:05.482Z,73.51
2022-08-26T17:28:32.447Z,73.69
2022-08-26T17:31:02.300Z,73.35
2022-08-26T17:33:29.213Z,73.23
2022-08-26T17:35:58.422Z,73.52
2022-08-26T17:38:25.687Z,74.16
2022-08-26T17:40:52.541Z,73.86
2022-08-26T17:43:21.296Z,73.46
2022-08-26T17:45:48.150Z,73.43
2022-08-26T17:48:14.907Z,73.76
2022-08-26T17:50:42.894Z,73.66
2022-08-26T17:53:18.618Z,74.03
2022-08-26T17:55:49.233Z,73.69
2022-08-26T17:58:23.421Z,74.14
2022-08-26T18:00:52.379Z,73.86
2022-08-26T18:03:19.379Z,73.96
2022-08-26T18:05:51.100Z,73.85
2022-08-26T18:08:17.900Z,74.25
2022-08-26T18:10:47.413Z,73.68
2022-08-26T18:13:17.031Z,73.90
2022-08-26T18:15:45.676Z,74.19
2022-08-26T18:18:14.004Z,73.55
2022-08-26T18:20:43.082Z,73.76
2022-08-26T18:23:10.100Z,74.07
2022-08-26T18:25:44.053Z,73.57
2022-08-26T18:28:10.776Z,73.96
2022-08-26T18:30:37.829Z,74.12
2022-08-26T18:33:04.722Z,73.71
2022-08-26T18:35:31.859Z,73.41
2022-08-26T18:38:10.893Z,73.72
2022-08-26T18:40:43.937Z,73.46
2022-08-26T18:43:11.096Z,73.71
2022-08-26T18:45:37.991Z,73.49
2022-08-26T18:48:05.172Z,73.85
2022-08-26T18:50:32.046Z,73.33
2022-08-26T18:52:58.772Z,73.23
2022-08-26T18:55:25.523Z,73.78
2022-08-26T18:57:52.279Z,73.71
2022-08-26T19:00:18.985Z,73.52
2022-08-26T19:02:51.713Z,73.83
2022-08-26T19:05:19.418Z,74.14
2022-08-26T19:07:49.174Z,74.03
2022-08-26T19:10:18.958Z,74.30
2022-08-26T19:12:45.837Z,73.99
2022-08-26T19:15:18.702Z,74.47
2022-08-26T19:17:45.430Z,74.55
2022-08-26T19:20:12.495Z,74.25
2022-08-26T19:22:39.228Z,74.71
2022-08-26T19:25:06.253Z,75.23
2022-08-26T19:27:33.680Z,75.60
2022-08-26T19:30:00.402Z,75.89
2022-08-26T19:32:27.205Z,76.75
2022-08-26T19:34:54.422Z,76.55
2022-08-26T19:37:21.520Z,77.12
2022-08-26T19:39:48.374Z,77.78
2022-08-26T19:42:15.157Z,77.71
2022-08-26T19:45:00.296Z,78.09
2022-08-26T19:47:27.122Z,78.06
2022-08-26T19:49:55.274Z,78.08
2022-08-26T19:52:23.584Z,78.06
2022-08-26T19:54:57.119Z,77.20
2022-08-26T19:57:23.816Z,77.07
2022-08-26T19:59:50.722Z,76.89
2022-08-26T20:02:18.270Z,76.99
2022-08-26T20:04:45.942Z,76.65
2022-08-26T20:07:18.515Z,76.55
2022-08-26T20:09:46.506Z,76.46
2022-08-26T20:12:13.849Z,76.76
2022-08-26T20:14:40.693Z,77.10
2022-08-26T20:17:07.635Z,77.13
2022-08-26T20:19:53.503Z,76.83
2022-08-26T20:22:20.924Z,76.76
2022-08-26T20:24:48.765Z,76.63
2022-08-26T20:27:15.678Z,77.03
2022-08-26T20:29:43.164Z,76.56
2022-08-26T20:32:10.670Z,76.72
2022-08-26T20:34:38.485Z,76.48
2022-08-26T20:37:05.492Z,76.95
2022-08-26T20:39:32.242Z,76.34
2022-08-26T20:41:59.029Z,76.77
2022-08-26T20:44:25.791Z,76.69
2022-08-26T20:46:52.816Z,76.34
2022-08-26T20:49:19.631Z,76.52
2022-08-26T20:51:50.872Z,76.36
2022-08-26T20:54:18.659Z,76.45
2022-08-26T20:56:50.927Z,76.37
2022-08-26T20:59:18.092Z,76.24
2022-08-26T21:01:45.718Z,76.02
2022-08-26T21:04:20.834Z,76.40
2022-08-26T21:06:52.180Z,75.86
2022-08-26T21:09:21.011Z,75.95
2022-08-26T21:11:48.721Z,76.08
2022-08-26T21:14:15.600Z,77.03
2022-08-26T21:16:44.076Z,77.62
2022-08-26T21:19:13.198Z,77.47
2022-08-26T21:21:40.977Z,77.70
2022-08-26T21:24:08.042Z,78.11
2022-08-26T21:26:34.813Z,77.94
2022-08-26T21:29:02.617Z,78.60
2022-08-26T21:31:29.933Z,78.84
2022-08-26T21:33:56.921Z,79.25
2022-08-26T21:36:23.746Z,79.34
2022-08-26T21:38:50.431Z,79.52
2022-08-26T21:41:20.370Z,79.29
2022-08-26T21:43:48.506Z,80.16
2022-08-26T21:46:18.274Z,80.28
2022-08-26T21:48:50.665Z,80.04
2022-08-26T21:51:19.649Z,80.20
2022-08-26T21:53:46.576Z,79.78
2022-08-26T21:56:15.699Z,79.95
2022-08-26T21:58:42.485Z,80.17
2022-08-26T22:01:15.730Z,80.18
2022-08-26T22:03:47.501Z,80.70
2022-08-26T22:06:16.814Z,80.93
2022-08-26T22:08:43.896Z,80.88
2022-08-26T22:11:10.773Z,81.03
2022-08-26T22:13:40.213Z,80.86
2022-08-26T22:16:07.371Z,80.39
2022-08-26T22:18:35.024Z,80.71
2022-08-26T22:21:07.111Z,80.32
2022-08-26T22:23:35.137Z,80.40
2022-08-26T22:26:02.575Z,80.29
2022-08-26T22:28:29.394Z,80.61
2022-08-26T22:30:56.040Z,80.63
2022-08-26T22:33:23.619Z,81.13
2022-08-26T22:35:52.813Z,81.96
2022-08-26T22:38:20.592Z,81.48
2022-08-26T22:40:50.944Z,82.15
2022-08-26T22:43:19.277Z,82.09
2022-08-26T22:45:48.500Z,82.39
2022-08-26T22:48:17.865Z,82.44
2022-08-26T22:50:48.662Z,82.09
2022-08-26T22:53:16.608Z,82.77
2022-08-26T22:55:43.765Z,82.81
2022-08-26T22:58:12.571Z,82.96
2022-08-26T23:00:40.174Z,83.50
2022-08-26T23:03:08.067Z,83.50
2022-08-26T23:05:34.942Z,84.50
2022-08-26T23:08:02.074Z,84.78
2022-08-26T23:10:28.723Z,84.97
2022-08-26T23:12:55.493Z,85.51
2022-08-26T23:15:22.468Z,86.07
2022-08-26T23:17:51.360Z,86.42
2022-08-26T23:20:26.801Z,86.61
2022-08-26T23:22:53.950Z,86.90
2022-08-26T23:25:21.023Z,87.23
2022-08-26T23:27:48.595Z,87.64
2022-08-26T23:30:19.790Z,87.83
2022-08-26T23:32:46.727Z,88.08
2022-08-26T23:35:14.446Z,88.37
2022-08-26T23:37:44.289Z,88.57
2022-08-26T23:40:19.006Z,88.98
2022-08-26T23:42:45.785Z,89.27
2022-08-26T23:45:13.472Z,89.58
2022-08-26T23:47:41.256Z,89.72
2022-08-26T23:50:08.780Z,90.52
2022-08-26T23:52:54.055Z,90.88
2022-08-26T23:55:20.785Z,91.44
2022-08-26T23:57:47.700Z,91.73
